createdAt,value
2023-01-11T00:04:03.581Z,32.83
2023-01-11T00:11:22.033Z,32.78
2023-01-11T00:18:42.149Z,34.58
2023-01-11T00:26:00.447Z,26.92
2023-01-11T00:33:18.647Z,26.25
2023-01-11T00:40:38.236Z,29.75
2023-01-11T00:48:00.457Z,26.92
2023-01-11T00:55:18.787Z,20.90
2023-01-11T01:02:38.460Z,31.75
2023-01-11T01:09:56.653Z,24.75
2023-01-11T01:17:14.781Z,26.83
2023-01-11T01:24:34.455Z,24.83
2023-01-11T01:31:52.744Z,27.27
2023-01-11T01:39:12.575Z,22.50
2023-01-11T01:46:35.952Z,25.10
2023-01-11T01:53:55.583Z,21.25
2023-01-11T02:01:32.458Z,20.83
2023-01-11T02:08:57.838Z,21.65
2023-01-11T02:16:16.093Z,14.20
2023-01-11T02:24:10.664Z,19.88
2023-01-11T02:31:34.944Z,17.60
2023-01-11T02:39:02.019Z,16.77
2023-01-11T02:46:26.460Z,17.58
2023-01-11T02:53:49.092Z,13.20
2023-01-11T03:01:08.627Z,13.23
2023-01-11T03:08:35.838Z,18.85
2023-01-11T03:16:10.311Z,17.92
2023-01-11T03:23:32.456Z,14.95
2023-01-11T03:30:53.301Z,22.13
2023-01-11T03:38:14.399Z,16.90
2023-01-11T03:45:34.728Z,17.67
2023-01-11T03:52:53.967Z,16.48
2023-01-11T04:00:14.960Z,12.88
2023-01-11T04:07:33.311Z,9.70
2023-01-11T04:14:51.583Z,8.52
2023-01-11T04:22:11.535Z,11.57
2023-01-11T04:29:29.708Z,9.63
2023-01-11T04:36:50.986Z,9.77
2023-01-11T04:44:10.840Z,12.27
2023-01-11T04:51:29.143Z,14.88
2023-01-11T04:58:47.354Z,16.17
2023-01-11T05:06:07.585Z,11.50
2023-01-11T05:13:41.790Z,9.98
2023-01-11T05:20:59.979Z,10.38
2023-01-11T05:28:19.649Z,12.73
2023-01-11T05:35:37.892Z,11.80
2023-01-11T05:42:56.190Z,9.52
2023-01-11T05:50:15.921Z,15.32
2023-01-11T05:57:34.173Z,12.00
2023-01-11T06:04:54.370Z,7.57
2023-01-11T06:12:14.905Z,10.15
2023-01-11T06:19:33.208Z,8.52
2023-01-11T06:26:53.745Z,7.03
2023-01-11T06:34:13.815Z,6.13
2023-01-11T06:41:32.074Z,5.38
2023-01-11T06:48:50.238Z,9.00
2023-01-11T06:56:12.774Z,8.35
2023-01-11T07:03:30.960Z,5.73
2023-01-11T07:10:49.297Z,13.55
2023-01-11T07:18:09.887Z,4.90
2023-01-11T07:25:28.782Z,8.05
2023-01-11T07:32:47.054Z,7.80
2023-01-11T07:40:07.877Z,6.30
2023-01-11T07:47:26.438Z,12.48
2023-01-11T07:54:44.617Z,8.43
2023-01-11T08:02:04.181Z,6.57
2023-01-11T08:09:22.414Z,5.68
2023-01-11T08:16:40.893Z,9.18
2023-01-11T08:24:01.102Z,9.50
2023-01-11T08:31:19.398Z,10.85
2023-01-11T08:38:38.319Z,6.97
2023-01-11T08:45:57.982Z,8.93
2023-01-11T08:53:16.912Z,8.85
2023-01-11T09:00:35.322Z,6.35
2023-01-11T09:07:57.446Z,7.82
2023-01-11T09:15:15.661Z,7.18
2023-01-11T09:22:33.969Z,11.23
2023-01-11T09:29:53.566Z,9.70
2023-01-11T09:37:11.773Z,10.43
2023-01-11T09:44:30.950Z,12.05
2023-01-11T09:51:51.623Z,8.05
2023-01-11T09:59:20.333Z,6.85
2023-01-11T10:06:46.660Z,10.35
2023-01-11T10:18:30.858Z,6.28
2023-01-11T10:21:55.352Z,8.88
2023-01-11T10:29:38.848Z,12.15
2023-01-11T10:37:17.115Z,9.93
2023-01-11T10:44:40.209Z,10.15
2023-01-11T10:52:02.066Z,10.52
2023-01-11T10:59:29.968Z,6.63
2023-01-11T11:06:55.731Z,7.40
2023-01-11T11:14:18.690Z,8.43
2023-01-11T11:21:39.802Z,5.70
2023-01-11T11:29:03.972Z,6.97
2023-01-11T11:36:22.298Z,10.48
2023-01-11T11:43:41.540Z,6.18
2023-01-11T11:51:03.198Z,5.72
2023-01-11T11:58:23.404Z,9.45
2023-01-11T12:05:50.420Z,7.45
2023-01-11T12:13:27.487Z,7.75
2023-01-11T12:20:47.622Z,8.50
2023-01-11T12:28:13.643Z,10.07
2023-01-11T12:35:36.503Z,6.30
2023-01-11T12:43:29.609Z,5.00
2023-01-11T12:51:08.633Z,4.73
2023-01-11T12:58:33.155Z,6.43
2023-01-11T13:06:00.636Z,6.60
2023-01-11T13:13:21.736Z,5.88
2023-01-11T13:21:00.080Z,8.60
2023-01-11T13:28:26.592Z,6.85
2023-01-11T13:35:50.096Z,8.35
2023-01-11T13:50:31.675Z,7.30
2023-01-11T13:57:55.057Z,13.43
2023-01-11T14:05:16.235Z,9.57
2023-01-11T14:12:46.227Z,8.88
2023-01-11T14:20:13.041Z,9.48
2023-01-11T14:27:55.996Z,9.38
2023-01-11T14:35:38.905Z,8.43
2023-01-11T14:43:29.557Z,14.07
2023-01-11T14:51:17.916Z,12.35
2023-01-11T14:58:36.090Z,12.80
2023-01-11T15:05:56.923Z,12.60
2023-01-11T15:13:20.834Z,10.55
2023-01-11T15:20:51.394Z,14.27
2023-01-11T15:28:36.857Z,11.90
2023-01-11T15:36:03.050Z,12.43
2023-01-11T15:43:48.031Z,12.48
2023-01-11T15:51:35.374Z,11.70
2023-01-11T15:59:36.103Z,16.80
2023-01-11T16:06:59.513Z,16.88
2023-01-11T16:14:34.322Z,14.38
2023-01-11T16:21:55.622Z,18.70
2023-01-11T16:29:20.097Z,14.30
2023-01-11T16:36:41.836Z,17.02
2023-01-11T16:44:02.409Z,11.45
2023-01-11T16:51:22.554Z,11.63
2023-01-11T16:58:41.318Z,12.27
2023-01-11T17:06:18.668Z,11.45
2023-01-11T17:13:56.031Z,13.52
2023-01-11T17:21:22.333Z,11.52
2023-01-11T17:28:40.547Z,8.52
2023-01-11T17:36:00.886Z,7.72
2023-01-11T17:43:39.844Z,11.43
2023-01-11T17:51:00.822Z,11.90
2023-01-11T17:58:26.485Z,13.65
2023-01-11T18:05:45.373Z,11.48
2023-01-11T18:13:05.299Z,10.63
2023-01-11T18:20:38.558Z,17.27
2023-01-11T18:28:29.458Z,10.93
2023-01-11T18:35:49.509Z,13.93
2023-01-11T18:43:07.905Z,12.68
2023-01-11T18:50:27.764Z,13.82
2023-01-11T18:57:47.632Z,14.15
2023-01-11T19:05:06.288Z,13.38
2023-01-11T19:12:26.139Z,11.48
2023-01-11T19:19:44.723Z,15.07
2023-01-11T19:27:03.542Z,13.20
2023-01-11T19:34:23.665Z,12.85
2023-01-11T19:41:58.036Z,12.25
2023-01-11T19:49:16.347Z,7.97
2023-01-11T19:56:36.004Z,8.40
2023-01-11T20:03:54.374Z,7.13
2023-01-11T20:11:15.587Z,8.35
2023-01-11T20:18:35.272Z,10.35
2023-01-11T20:25:59.413Z,13.60
2023-01-11T20:33:17.918Z,10.77
2023-01-11T20:40:39.712Z,12.63
2023-01-11T20:47:58.142Z,15.23
2023-01-11T20:55:17.078Z,13.60
2023-01-11T21:02:37.075Z,13.60
2023-01-11T21:09:55.568Z,13.15
2023-01-11T21:17:14.028Z,13.18
2023-01-11T21:24:34.089Z,16.05
2023-01-11T21:31:52.321Z,15.13
2023-01-11T21:39:13.903Z,15.82
2023-01-11T21:46:33.668Z,17.60
2023-01-11T21:53:51.904Z,18.45
2023-01-11T22:01:13.850Z,15.30
2023-01-11T22:08:35.540Z,16.98
2023-01-11T22:15:53.831Z,21.42
2023-01-11T22:23:12.100Z,19.23
2023-01-11T22:30:31.743Z,17.77
2023-01-11T22:37:50.410Z,22.52
2023-01-11T22:45:10.511Z,21.80
2023-01-11T22:52:34.440Z,19.95
2023-01-11T22:59:54.890Z,18.27
2023-01-11T23:07:13.148Z,16.65
2023-01-11T23:14:34.270Z,18.88
2023-01-11T23:21:52.769Z,19.65
2023-01-11T23:29:22.686Z,17.08
2023-01-11T23:36:43.931Z,23.42
2023-01-11T23:44:02.821Z,19.15
2023-01-11T23:51:21.004Z,22.38
2023-01-11T23:58:40.619Z,18.42
